sensor_id;sensor_type;location;lat;lon;timestamp;temperature;humidity
52016;DHT22;38032;53.326;6.472;2023-04-06T00:01:56;2.70;99.90
52016;DHT22;38032;53.326;6.472;2023-04-06T00:04:22;2.60;99.90
52016;DHT22;38032;53.326;6.472;2023-04-06T00:06:48;2.70;99.90
52016;DHT22;38032;53.326;6.472;2023-04-06T00:09:14;2.60;99.90
52016;DHT22;38032;53.326;6.472;2023-04-06T00:11:40;2.70;99.90
52016;DHT22;38032;53.326;6.472;2023-04-06T00:14:06;2.60;99.90
52016;DHT22;38032;53.326;6.472;2023-04-06T00:16:32;2.70;99.90
52016;DHT22;38032;53.326;6.472;2023-04-06T00:18:57;2.60;99.90
52016;DHT22;38032;53.326;6.472;2023-04-06T00:21:23;2.70;99.90
52016;DHT22;38032;53.326;6.472;2023-04-06T00:23:51;2.70;99.90
52016;DHT22;38032;53.326;6.472;2023-04-06T00:26:16;2.60;99.90
52016;DHT22;38032;53.326;6.472;2023-04-06T00:28:42;2.70;99.90
52016;DHT22;38032;53.326;6.472;2023-04-06T00:31:08;2.60;99.90
52016;DHT22;38032;53.326;6.472;2023-04-06T00:33:34;2.60;99.90
52016;DHT22;38032;53.326;6.472;2023-04-06T00:36:00;2.60;99.90
52016;DHT22;38032;53.326;6.472;2023-04-06T00:38:26;2.60;99.90
52016;DHT22;38032;53.326;6.472;2023-04-06T00:40:51;2.50;99.90
52016;DHT22;38032;53.326;6.472;2023-04-06T00:43:17;2.50;99.90
52016;DHT22;38032;53.326;6.472;2023-04-06T00:45:43;2.50;99.90
52016;DHT22;38032;53.326;6.472;2023-04-06T00:48:09;2.40;99.90
52016;DHT22;38032;53.326;6.472;2023-04-06T00:50:35;2.50;99.90
52016;DHT22;38032;53.326;6.472;2023-04-06T00:53:01;2.60;99.90
52016;DHT22;38032;53.326;6.472;2023-04-06T00:55:28;2.40;99.90
52016;DHT22;38032;53.326;6.472;2023-04-06T00:57:54;2.40;99.90
52016;DHT22;38032;53.326;6.472;2023-04-06T01:00:22;2.40;99.90
52016;DHT22;38032;53.326;6.472;2023-04-06T01:02:48;3.60;99.90
52016;DHT22;38032;53.326;6.472;2023-04-06T01:05:15;2.20;99.90
52016;DHT22;38032;53.326;6.472;2023-04-06T01:07:40;2.10;99.90
52016;DHT22;38032;53.326;6.472;2023-04-06T01:10:07;2.10;99.90
52016;DHT22;38032;53.326;6.472;2023-04-06T01:12:33;2.10;99.90
52016;DHT22;38032;53.326;6.472;2023-04-06T01:14:59;2.10;99.90
52016;DHT22;38032;53.326;6.472;2023-04-06T01:17:25;2.10;99.90
52016;DHT22;38032;53.326;6.472;2023-04-06T01:19:51;2.10;99.90
52016;DHT22;38032;53.326;6.472;2023-04-06T01:22:19;2.10;99.90
52016;DHT22;38032;53.326;6.472;2023-04-06T01:24:46;2.30;99.90
52016;DHT22;38032;53.326;6.472;2023-04-06T01:27:12;2.30;99.90
52016;DHT22;38032;53.326;6.472;2023-04-06T01:29:39;2.20;99.90
52016;DHT22;38032;53.326;6.472;2023-04-06T01:32:07;2.20;99.90
52016;DHT22;38032;53.326;6.472;2023-04-06T01:34:33;2.10;99.90
52016;DHT22;38032;53.326;6.472;2023-04-06T01:36:59;2.00;99.90
52016;DHT22;38032;53.326;6.472;2023-04-06T01:39:25;2.10;99.90
52016;DHT22;38032;53.326;6.472;2023-04-06T01:41:51;2.00;99.90
52016;DHT22;38032;53.326;6.472;2023-04-06T01:44:17;2.00;99.90
52016;DHT22;38032;53.326;6.472;2023-04-06T01:46:44;2.00;99.90
52016;DHT22;38032;53.326;6.472;2023-04-06T01:49:12;2.00;99.90
52016;DHT22;38032;53.326;6.472;2023-04-06T01:51:38;1.90;99.90
52016;DHT22;38032;53.326;6.472;2023-04-06T01:54:04;2.00;99.90
52016;DHT22;38032;53.326;6.472;2023-04-06T01:56:30;2.00;99.90
52016;DHT22;38032;53.326;6.472;2023-04-06T01:58:56;2.00;99.90
52016;DHT22;38032;53.326;6.472;2023-04-06T02:01:22;2.10;99.90
52016;DHT22;38032;53.326;6.472;2023-04-06T02:03:48;2.00;99.90
52016;DHT22;38032;53.326;6.472;2023-04-06T02:06:13;2.00;99.90
52016;DHT22;38032;53.326;6.472;2023-04-06T02:08:39;2.00;99.90
52016;DHT22;38032;53.326;6.472;2023-04-06T02:11:05;2.00;99.90
52016;DHT22;38032;53.326;6.472;2023-04-06T02:13:31;2.10;99.90
52016;DHT22;38032;53.326;6.472;2023-04-06T02:15:57;2.00;99.90
52016;DHT22;38032;53.326;6.472;2023-04-06T02:18:23;2.00;99.90
52016;DHT22;38032;53.326;6.472;2023-04-06T02:20:49;2.00;99.90
52016;DHT22;38032;53.326;6.472;2023-04-06T02:23:15;1.90;99.90
52016;DHT22;38032;53.326;6.472;2023-04-06T02:25:41;2.00;99.90
52016;DHT22;38032;53.326;6.472;2023-04-06T02:28:07;2.00;99.90
52016;DHT22;38032;53.326;6.472;2023-04-06T02:30:33;1.90;99.90
52016;DHT22;38032;53.326;6.472;2023-04-06T02:33:01;1.90;99.90
52016;DHT22;38032;53.326;6.472;2023-04-06T02:35:28;1.90;99.90
52016;DHT22;38032;53.326;6.472;2023-04-06T02:37:54;1.80;99.90
52016;DHT22;38032;53.326;6.472;2023-04-06T02:40:20;1.70;99.90
52016;DHT22;38032;53.326;6.472;2023-04-06T02:42:46;1.80;99.90
52016;DHT22;38032;53.326;6.472;2023-04-06T02:45:12;1.80;99.90
52016;DHT22;38032;53.326;6.472;2023-04-06T02:47:38;1.80;99.90
52016;DHT22;38032;53.326;6.472;2023-04-06T02:50:04;1.80;99.90
52016;DHT22;38032;53.326;6.472;2023-04-06T02:52:31;1.70;99.90
52016;DHT22;38032;53.326;6.472;2023-04-06T02:54:57;1.80;99.90
52016;DHT22;38032;53.326;6.472;2023-04-06T02:57:23;1.80;99.90
52016;DHT22;38032;53.326;6.472;2023-04-06T02:59:49;1.80;99.90
52016;DHT22;38032;53.326;6.472;2023-04-06T03:02:15;1.80;99.90
52016;DHT22;38032;53.326;6.472;2023-04-06T03:04:41;1.80;99.90
52016;DHT22;38032;53.326;6.472;2023-04-06T03:07:07;1.80;99.90
52016;DHT22;38032;53.326;6.472;2023-04-06T03:09:33;1.80;99.90
52016;DHT22;38032;53.326;6.472;2023-04-06T03:11:59;1.60;99.90
52016;DHT22;38032;53.326;6.472;2023-04-06T03:14:27;1.70;99.90
52016;DHT22;38032;53.326;6.472;2023-04-06T03:16:52;1.70;99.90
52016;DHT22;38032;53.326;6.472;2023-04-06T03:19:18;1.60;99.90
52016;DHT22;38032;53.326;6.472;2023-04-06T03:21:44;1.70;99.90
52016;DHT22;38032;53.326;6.472;2023-04-06T03:24:10;1.70;99.90
52016;DHT22;38032;53.326;6.472;2023-04-06T03:26:36;1.60;99.90
52016;DHT22;38032;53.326;6.472;2023-04-06T03:29:02;1.70;99.90
52016;DHT22;38032;53.326;6.472;2023-04-06T03:31:28;1.50;99.90
52016;DHT22;38032;53.326;6.472;2023-04-06T03:33:53;1.40;99.90
52016;DHT22;38032;53.326;6.472;2023-04-06T03:36:19;1.50;99.90
52016;DHT22;38032;53.326;6.472;2023-04-06T03:38:45;1.40;99.90
52016;DHT22;38032;53.326;6.472;2023-04-06T03:41:11;1.30;99.90
52016;DHT22;38032;53.326;6.472;2023-04-06T03:43:37;1.30;99.90
52016;DHT22;38032;53.326;6.472;2023-04-06T03:46:03;1.20;99.90
52016;DHT22;38032;53.326;6.472;2023-04-06T03:48:29;1.20;99.90
52016;DHT22;38032;53.326;6.472;2023-04-06T03:50:55;1.20;99.90
52016;DHT22;38032;53.326;6.472;2023-04-06T03:53:21;1.10;99.90
52016;DHT22;38032;53.326;6.472;2023-04-06T03:55:46;1.10;99.90
52016;DHT22;38032;53.326;6.472;2023-04-06T03:58:12;1.00;99.90
52016;DHT22;38032;53.326;6.472;2023-04-06T04:00:38;1.00;99.90
52016;DHT22;38032;53.326;6.472;2023-04-06T04:03:04;1.10;99.90
52016;DHT22;38032;53.326;6.472;2023-04-06T04:05:30;1.10;99.90
52016;DHT22;38032;53.326;6.472;2023-04-06T04:07:56;1.10;99.90
52016;DHT22;38032;53.326;6.472;2023-04-06T04:10:22;1.20;99.90
52016;DHT22;38032;53.326;6.472;2023-04-06T04:12:48;1.20;99.90
52016;DHT22;38032;53.326;6.472;2023-04-06T04:15:13;1.20;99.90
52016;DHT22;38032;53.326;6.472;2023-04-06T04:17:39;1.20;99.90
52016;DHT22;38032;53.326;6.472;2023-04-06T04:20:06;1.20;99.90
52016;DHT22;38032;53.326;6.472;2023-04-06T04:22:32;1.20;99.90
52016;DHT22;38032;53.326;6.472;2023-04-06T04:24:58;1.20;99.90
52016;DHT22;38032;53.326;6.472;2023-04-06T04:27:24;1.20;99.90
52016;DHT22;38032;53.326;6.472;2023-04-06T04:29:49;1.20;99.90
52016;DHT22;38032;53.326;6.472;2023-04-06T04:32:15;1.20;99.90
52016;DHT22;38032;53.326;6.472;2023-04-06T04:34:42;1.20;99.90
52016;DHT22;38032;53.326;6.472;2023-04-06T04:37:07;1.20;99.90
52016;DHT22;38032;53.326;6.472;2023-04-06T04:39:33;1.10;99.90
52016;DHT22;38032;53.326;6.472;2023-04-06T04:41:59;1.10;99.90
52016;DHT22;38032;53.326;6.472;2023-04-06T04:44:25;1.10;99.90
52016;DHT22;38032;53.326;6.472;2023-04-06T04:46:52;1.00;99.90
52016;DHT22;38032;53.326;6.472;2023-04-06T04:49:17;1.00;99.90
52016;DHT22;38032;53.326;6.472;2023-04-06T04:51:43;1.00;99.90
52016;DHT22;38032;53.326;6.472;2023-04-06T04:54:09;1.00;99.90
52016;DHT22;38032;53.326;6.472;2023-04-06T04:56:35;0.90;99.90
52016;DHT22;38032;53.326;6.472;2023-04-06T04:59:01;0.90;99.90
52016;DHT22;38032;53.326;6.472;2023-04-06T05:01:27;1.00;99.90
52016;DHT22;38032;53.326;6.472;2023-04-06T05:03:53;1.00;99.90
52016;DHT22;38032;53.326;6.472;2023-04-06T05:06:19;0.90;99.90
52016;DHT22;38032;53.326;6.472;2023-04-06T05:08:45;1.00;99.90
52016;DHT22;38032;53.326;6.472;2023-04-06T05:11:11;0.90;99.90
52016;DHT22;38032;53.326;6.472;2023-04-06T05:13:37;0.90;99.90
52016;DHT22;38032;53.326;6.472;2023-04-06T05:16:03;0.90;99.90
52016;DHT22;38032;53.326;6.472;2023-04-06T05:18:29;0.90;99.90
52016;DHT22;38032;53.326;6.472;2023-04-06T05:20:55;1.00;99.90
52016;DHT22;38032;53.326;6.472;2023-04-06T05:23:21;1.00;99.90
52016;DHT22;38032;53.326;6.472;2023-04-06T05:25:47;1.10;99.90
52016;DHT22;38032;53.326;6.472;2023-04-06T05:28:13;1.00;99.90
52016;DHT22;38032;53.326;6.472;2023-04-06T05:30:41;1.40;99.90
52016;DHT22;38032;53.326;6.472;2023-04-06T05:33:07;1.50;99.90
52016;DHT22;38032;53.326;6.472;2023-04-06T05:35:33;1.60;99.90
52016;DHT22;38032;53.326;6.472;2023-04-06T05:37:59;1.70;99.90
52016;DHT22;38032;53.326;6.472;2023-04-06T05:40:25;1.70;99.90
52016;DHT22;38032;53.326;6.472;2023-04-06T05:42:51;1.80;99.90
52016;DHT22;38032;53.326;6.472;2023-04-06T05:45:17;1.90;99.90
52016;DHT22;38032;53.326;6.472;2023-04-06T05:47:44;2.00;99.90
52016;DHT22;38032;53.326;6.472;2023-04-06T05:50:11;2.20;99.90
52016;DHT22;38032;53.326;6.472;2023-04-06T05:52:37;2.40;99.90
52016;DHT22;38032;53.326;6.472;2023-04-06T05:55:04;2.50;99.90
52016;DHT22;38032;53.326;6.472;2023-04-06T05:57:30;2.50;99.90
52016;DHT22;38032;53.326;6.472;2023-04-06T05:59:56;2.70;99.90
52016;DHT22;38032;53.326;6.472;2023-04-06T06:02:22;2.70;99.90
52016;DHT22;38032;53.326;6.472;2023-04-06T06:04:48;2.80;99.90
52016;DHT22;38032;53.326;6.472;2023-04-06T06:07:14;2.90;99.90
52016;DHT22;38032;53.326;6.472;2023-04-06T06:09:40;2.90;99.90
52016;DHT22;38032;53.326;6.472;2023-04-06T06:12:06;3.00;99.90
52016;DHT22;38032;53.326;6.472;2023-04-06T06:14:33;3.00;99.90
52016;DHT22;38032;53.326;6.472;2023-04-06T06:16:58;3.00;99.90
52016;DHT22;38032;53.326;6.472;2023-04-06T06:19:24;3.10;99.90
52016;DHT22;38032;53.326;6.472;2023-04-06T06:21:50;3.20;99.90
52016;DHT22;38032;53.326;6.472;2023-04-06T06:24:16;3.30;99.90
52016;DHT22;38032;53.326;6.472;2023-04-06T06:26:42;3.40;99.90
52016;DHT22;38032;53.326;6.472;2023-04-06T06:29:08;3.60;99.90
52016;DHT22;38032;53.326;6.472;2023-04-06T06:31:34;3.70;99.90
52016;DHT22;38032;53.326;6.472;2023-04-06T06:34:01;3.80;99.90
52016;DHT22;38032;53.326;6.472;2023-04-06T06:36:28;4.10;99.90
52016;DHT22;38032;53.326;6.472;2023-04-06T06:38:54;4.50;99.90
52016;DHT22;38032;53.326;6.472;2023-04-06T06:41:20;4.90;99.90
52016;DHT22;38032;53.326;6.472;2023-04-06T06:43:46;5.10;99.90
52016;DHT22;38032;53.326;6.472;2023-04-06T06:46:12;5.40;99.90
52016;DHT22;38032;53.326;6.472;2023-04-06T06:48:38;5.70;99.90
52016;DHT22;38032;53.326;6.472;2023-04-06T06:51:03;6.10;99.90
52016;DHT22;38032;53.326;6.472;2023-04-06T06:53:29;6.50;99.90
52016;DHT22;38032;53.326;6.472;2023-04-06T06:55:55;6.80;99.90
52016;DHT22;38032;53.326;6.472;2023-04-06T06:58:21;7.20;99.90
52016;DHT22;38032;53.326;6.472;2023-04-06T07:00:47;7.60;99.90
52016;DHT22;38032;53.326;6.472;2023-04-06T07:03:13;8.00;99.90
52016;DHT22;38032;53.326;6.472;2023-04-06T07:05:45;8.70;99.90
52016;DHT22;38032;53.326;6.472;2023-04-06T07:08:14;9.70;98.90
52016;DHT22;38032;53.326;6.472;2023-04-06T07:10:40;10.80;97.30
52016;DHT22;38032;53.326;6.472;2023-04-06T07:13:06;11.70;94.70
52016;DHT22;38032;53.326;6.472;2023-04-06T07:15:32;12.60;91.40
52016;DHT22;38032;53.326;6.472;2023-04-06T07:17:58;13.60;86.40
52016;DHT22;38032;53.326;6.472;2023-04-06T07:20:24;13.90;80.80
52016;DHT22;38032;53.326;6.472;2023-04-06T07:22:51;13.50;77.90
52016;DHT22;38032;53.326;6.472;2023-04-06T07:25:16;13.20;76.40
52016;DHT22;38032;53.326;6.472;2023-04-06T07:27:42;12.80;76.30
52016;DHT22;38032;53.326;6.472;2023-04-06T07:30:09;12.30;76.70
52016;DHT22;38032;53.326;6.472;2023-04-06T07:32:35;11.80;78.80
52016;DHT22;38032;53.326;6.472;2023-04-06T07:35:01;11.50;80.00
52016;DHT22;38032;53.326;6.472;2023-04-06T07:37:27;11.40;80.80
52016;DHT22;38032;53.326;6.472;2023-04-06T07:39:53;11.20;81.30
52016;DHT22;38032;53.326;6.472;2023-04-06T07:42:19;11.30;81.60
52016;DHT22;38032;53.326;6.472;2023-04-06T07:44:45;11.80;80.20
52016;DHT22;38032;53.326;6.472;2023-04-06T07:47:11;12.60;77.40
52016;DHT22;38032;53.326;6.472;2023-04-06T07:49:37;13.40;73.20
52016;DHT22;38032;53.326;6.472;2023-04-06T07:52:03;14.00;70.00
52016;DHT22;38032;53.326;6.472;2023-04-06T07:54:29;14.10;68.00
52016;DHT22;38032;53.326;6.472;2023-04-06T07:56:55;14.20;66.50
52016;DHT22;38032;53.326;6.472;2023-04-06T07:59:21;14.20;65.90
52016;DHT22;38032;53.326;6.472;2023-04-06T08:01:47;14.30;65.40
52016;DHT22;38032;53.326;6.472;2023-04-06T08:04:12;14.80;64.40
52016;DHT22;38032;53.326;6.472;2023-04-06T08:06:38;15.40;63.50
52016;DHT22;38032;53.326;6.472;2023-04-06T08:09:04;16.10;62.70
52016;DHT22;38032;53.326;6.472;2023-04-06T08:11:30;16.90;61.40
52016;DHT22;38032;53.326;6.472;2023-04-06T08:13:56;17.60;60.10
52016;DHT22;38032;53.326;6.472;2023-04-06T08:16:23;18.00;59.10
52016;DHT22;38032;53.326;6.472;2023-04-06T08:18:49;17.60;59.00
52016;DHT22;38032;53.326;6.472;2023-04-06T08:21:15;17.20;59.40
52016;DHT22;38032;53.326;6.472;2023-04-06T08:23:41;16.90;58.50
52016;DHT22;38032;53.326;6.472;2023-04-06T08:26:07;16.80;58.30
52016;DHT22;38032;53.326;6.472;2023-04-06T08:28:33;16.80;57.60
52016;DHT22;38032;53.326;6.472;2023-04-06T08:31:04;17.20;57.10
52016;DHT22;38032;53.326;6.472;2023-04-06T08:33:30;17.50;56.60
52016;DHT22;38032;53.326;6.472;2023-04-06T08:35:56;17.70;56.30
52016;DHT22;38032;53.326;6.472;2023-04-06T08:38:22;18.10;55.40
52016;DHT22;38032;53.326;6.472;2023-04-06T08:40:48;18.40;54.40
52016;DHT22;38032;53.326;6.472;2023-04-06T08:43:17;18.60;53.90
52016;DHT22;38032;53.326;6.472;2023-04-06T08:45:47;18.60;54.00
52016;DHT22;38032;53.326;6.472;2023-04-06T08:48:15;19.00;53.70
52016;DHT22;38032;53.326;6.472;2023-04-06T08:50:41;19.50;52.20
52016;DHT22;38032;53.326;6.472;2023-04-06T08:53:07;19.90;51.90
52016;DHT22;38032;53.326;6.472;2023-04-06T08:55:34;20.20;51.80
52016;DHT22;38032;53.326;6.472;2023-04-06T08:58:01;20.40;51.40
52016;DHT22;38032;53.326;6.472;2023-04-06T09:00:28;20.70;51.20
52016;DHT22;38032;53.326;6.472;2023-04-06T09:02:56;21.00;49.90
52016;DHT22;38032;53.326;6.472;2023-04-06T09:05:24;21.00;49.40
52016;DHT22;38032;53.326;6.472;2023-04-06T09:07:51;20.80;49.70
52016;DHT22;38032;53.326;6.472;2023-04-06T09:10:17;20.60;49.70
52016;DHT22;38032;53.326;6.472;2023-04-06T09:12:43;20.60;50.10
52016;DHT22;38032;53.326;6.472;2023-04-06T09:15:22;20.60;49.70
52016;DHT22;38032;53.326;6.472;2023-04-06T09:17:48;20.90;48.80
52016;DHT22;38032;53.326;6.472;2023-04-06T09:20:13;21.20;48.00
52016;DHT22;38032;53.326;6.472;2023-04-06T09:22:40;21.40;46.60
52016;DHT22;38032;53.326;6.472;2023-04-06T09:25:08;21.30;46.00
52016;DHT22;38032;53.326;6.472;2023-04-06T09:27:36;21.00;46.50
52016;DHT22;38032;53.326;6.472;2023-04-06T09:30:07;20.60;46.30
52016;DHT22;38032;53.326;6.472;2023-04-06T09:32:51;20.10;46.10
52016;DHT22;38032;53.326;6.472;2023-04-06T09:35:17;19.50;46.10
52016;DHT22;38032;53.326;6.472;2023-04-06T09:37:47;19.00;46.60
52016;DHT22;38032;53.326;6.472;2023-04-06T09:40:14;18.50;47.00
52016;DHT22;38032;53.326;6.472;2023-04-06T09:42:45;18.10;47.90
52016;DHT22;38032;53.326;6.472;2023-04-06T09:45:12;17.80;48.50
52016;DHT22;38032;53.326;6.472;2023-04-06T09:47:42;17.40;48.70
52016;DHT22;38032;53.326;6.472;2023-04-06T09:50:10;17.10;49.30
52016;DHT22;38032;53.326;6.472;2023-04-06T09:52:48;16.80;50.00
52016;DHT22;38032;53.326;6.472;2023-04-06T09:55:23;16.70;50.60
52016;DHT22;38032;53.326;6.472;2023-04-06T09:57:55;16.50;50.40
52016;DHT22;38032;53.326;6.472;2023-04-06T10:00:23;16.40;50.80
52016;DHT22;38032;53.326;6.472;2023-04-06T10:03:01;16.40;51.10
52016;DHT22;38032;53.326;6.472;2023-04-06T10:08:08;16.30;51.50
52016;DHT22;38032;53.326;6.472;2023-04-06T10:10:35;16.30;51.40
52016;DHT22;38032;53.326;6.472;2023-04-06T10:13:01;16.40;51.60
52016;DHT22;38032;53.326;6.472;2023-04-06T10:15:28;16.50;51.90
52016;DHT22;38032;53.326;6.472;2023-04-06T10:17:56;16.70;52.00
52016;DHT22;38032;53.326;6.472;2023-04-06T10:20:27;16.90;51.70
52016;DHT22;38032;53.326;6.472;2023-04-06T10:23:02;17.30;52.00
52016;DHT22;38032;53.326;6.472;2023-04-06T10:25:31;17.60;52.40
52016;DHT22;38032;53.326;6.472;2023-04-06T10:28:00;17.80;51.80
52016;DHT22;38032;53.326;6.472;2023-04-06T10:30:27;17.70;51.40
52016;DHT22;38032;53.326;6.472;2023-04-06T10:32:53;17.70;51.70
52016;DHT22;38032;53.326;6.472;2023-04-06T10:35:19;17.60;51.30
52016;DHT22;38032;53.326;6.472;2023-04-06T10:37:48;17.50;51.20
52016;DHT22;38032;53.326;6.472;2023-04-06T10:40:21;17.50;52.00
52016;DHT22;38032;53.326;6.472;2023-04-06T10:42:47;17.50;52.00
52016;DHT22;38032;53.326;6.472;2023-04-06T10:45:22;17.40;51.70
52016;DHT22;38032;53.326;6.472;2023-04-06T10:47:49;17.30;52.70
52016;DHT22;38032;53.326;6.472;2023-04-06T10:50:15;17.20;53.10
52016;DHT22;38032;53.326;6.472;2023-04-06T10:52:45;17.00;52.80
52016;DHT22;38032;53.326;6.472;2023-04-06T10:55:13;16.80;52.80
52016;DHT22;38032;53.326;6.472;2023-04-06T10:57:40;16.90;53.40
52016;DHT22;38032;53.326;6.472;2023-04-06T11:00:07;17.00;53.30
52016;DHT22;38032;53.326;6.472;2023-04-06T11:02:35;17.00;52.90
52016;DHT22;38032;53.326;6.472;2023-04-06T11:05:03;17.10;53.30
52016;DHT22;38032;53.326;6.472;2023-04-06T11:07:29;17.10;52.90
52016;DHT22;38032;53.326;6.472;2023-04-06T11:09:56;17.20;53.80
52016;DHT22;38032;53.326;6.472;2023-04-06T11:12:25;17.20;53.90
52016;DHT22;38032;53.326;6.472;2023-04-06T11:14:56;17.40;53.50
52016;DHT22;38032;53.326;6.472;2023-04-06T11:17:27;17.50;53.40
52016;DHT22;38032;53.326;6.472;2023-04-06T11:19:54;17.70;52.60
52016;DHT22;38032;53.326;6.472;2023-04-06T11:22:20;17.50;51.30
52016;DHT22;38032;53.326;6.472;2023-04-06T11:24:46;17.30;50.90
52016;DHT22;38032;53.326;6.472;2023-04-06T11:27:13;17.20;50.80
52016;DHT22;38032;53.326;6.472;2023-04-06T11:29:41;17.10;50.50
52016;DHT22;38032;53.326;6.472;2023-04-06T11:32:07;16.90;51.40
52016;DHT22;38032;53.326;6.472;2023-04-06T11:34:36;16.80;51.10
52016;DHT22;38032;53.326;6.472;2023-04-06T11:37:07;16.70;51.30
52016;DHT22;38032;53.326;6.472;2023-04-06T11:39:38;16.70;50.80
52016;DHT22;38032;53.326;6.472;2023-04-06T11:42:05;16.60;51.40
52016;DHT22;38032;53.326;6.472;2023-04-06T11:44:34;16.60;52.00
52016;DHT22;38032;53.326;6.472;2023-04-06T11:47:02;16.50;52.00
52016;DHT22;38032;53.326;6.472;2023-04-06T11:49:29;16.50;51.70
52016;DHT22;38032;53.326;6.472;2023-04-06T11:51:56;16.40;51.80
52016;DHT22;38032;53.326;6.472;2023-04-06T11:54:32;16.40;52.00
52016;DHT22;38032;53.326;6.472;2023-04-06T11:56:59;16.50;52.10
52016;DHT22;38032;53.326;6.472;2023-04-06T11:59:26;16.50;52.20
52016;DHT22;38032;53.326;6.472;2023-04-06T12:01:53;16.40;52.20
52016;DHT22;38032;53.326;6.472;2023-04-06T12:04:20;16.30;52.20
52016;DHT22;38032;53.326;6.472;2023-04-06T12:06:46;16.20;52.10
52016;DHT22;38032;53.326;6.472;2023-04-06T12:09:12;16.10;51.90
52016;DHT22;38032;53.326;6.472;2023-04-06T12:11:38;16.00;52.10
52016;DHT22;38032;53.326;6.472;2023-04-06T12:14:04;16.00;52.40
52016;DHT22;38032;53.326;6.472;2023-04-06T12:16:31;15.90;52.70
52016;DHT22;38032;53.326;6.472;2023-04-06T12:18:57;15.90;52.50
52016;DHT22;38032;53.326;6.472;2023-04-06T12:21:23;15.90;52.90
52016;DHT22;38032;53.326;6.472;2023-04-06T12:23:48;15.90;52.90
52016;DHT22;38032;53.326;6.472;2023-04-06T12:26:14;15.80;53.00
52016;DHT22;38032;53.326;6.472;2023-04-06T12:28:40;15.80;53.50
52016;DHT22;38032;53.326;6.472;2023-04-06T12:31:06;15.70;53.30
52016;DHT22;38032;53.326;6.472;2023-04-06T12:33:32;15.50;53.40
52016;DHT22;38032;53.326;6.472;2023-04-06T12:35:58;15.50;53.40
52016;DHT22;38032;53.326;6.472;2023-04-06T12:38:24;15.40;53.40
52016;DHT22;38032;53.326;6.472;2023-04-06T12:40:50;15.30;53.30
52016;DHT22;38032;53.326;6.472;2023-04-06T12:43:16;15.30;53.80
52016;DHT22;38032;53.326;6.472;2023-04-06T12:45:41;15.30;54.10
52016;DHT22;38032;53.326;6.472;2023-04-06T12:48:07;15.30;54.30
52016;DHT22;38032;53.326;6.472;2023-04-06T12:50:33;15.30;54.10
52016;DHT22;38032;53.326;6.472;2023-04-06T12:52:59;15.20;54.50
52016;DHT22;38032;53.326;6.472;2023-04-06T12:55:25;15.10;55.20
52016;DHT22;38032;53.326;6.472;2023-04-06T12:57:52;14.90;55.40
52016;DHT22;38032;53.326;6.472;2023-04-06T13:00:18;14.90;55.60
52016;DHT22;38032;53.326;6.472;2023-04-06T13:02:44;14.80;55.30
52016;DHT22;38032;53.326;6.472;2023-04-06T13:05:13;14.70;55.30
52016;DHT22;38032;53.326;6.472;2023-04-06T13:07:44;14.70;55.60
52016;DHT22;38032;53.326;6.472;2023-04-06T13:10:10;14.60;55.50
52016;DHT22;38032;53.326;6.472;2023-04-06T13:12:36;14.50;55.30
52016;DHT22;38032;53.326;6.472;2023-04-06T13:15:02;14.50;55.90
52016;DHT22;38032;53.326;6.472;2023-04-06T13:17:29;14.60;55.60
52016;DHT22;38032;53.326;6.472;2023-04-06T13:19:55;14.50;55.60
52016;DHT22;38032;53.326;6.472;2023-04-06T13:22:21;14.60;56.10
52016;DHT22;38032;53.326;6.472;2023-04-06T13:24:47;14.60;56.10
52016;DHT22;38032;53.326;6.472;2023-04-06T13:27:13;14.60;55.50
52016;DHT22;38032;53.326;6.472;2023-04-06T13:29:38;14.70;55.30
52016;DHT22;38032;53.326;6.472;2023-04-06T13:32:05;14.70;55.50
52016;DHT22;38032;53.326;6.472;2023-04-06T13:34:30;14.70;55.30
52016;DHT22;38032;53.326;6.472;2023-04-06T13:36:57;14.70;56.30
52016;DHT22;38032;53.326;6.472;2023-04-06T13:39:22;14.60;55.20
52016;DHT22;38032;53.326;6.472;2023-04-06T13:41:48;14.60;55.70
52016;DHT22;38032;53.326;6.472;2023-04-06T13:44:14;14.50;56.00
52016;DHT22;38032;53.326;6.472;2023-04-06T13:46:40;14.50;56.60
52016;DHT22;38032;53.326;6.472;2023-04-06T13:49:06;14.50;56.40
52016;DHT22;38032;53.326;6.472;2023-04-06T13:51:32;14.50;56.30
52016;DHT22;38032;53.326;6.472;2023-04-06T13:53:58;14.50;56.60
52016;DHT22;38032;53.326;6.472;2023-04-06T13:56:24;14.60;56.60
52016;DHT22;38032;53.326;6.472;2023-04-06T13:58:53;14.60;56.30
52016;DHT22;38032;53.326;6.472;2023-04-06T14:01:20;14.70;56.60
52016;DHT22;38032;53.326;6.472;2023-04-06T14:03:47;14.70;57.20
52016;DHT22;38032;53.326;6.472;2023-04-06T14:06:13;14.80;57.20
52016;DHT22;38032;53.326;6.472;2023-04-06T14:08:40;14.90;57.70
52016;DHT22;38032;53.326;6.472;2023-04-06T14:11:10;14.90;58.00
52016;DHT22;38032;53.326;6.472;2023-04-06T14:13:37;14.90;57.80
52016;DHT22;38032;53.326;6.472;2023-04-06T14:16:03;14.80;58.20
52016;DHT22;38032;53.326;6.472;2023-04-06T14:18:29;14.80;58.80
52016;DHT22;38032;53.326;6.472;2023-04-06T14:20:57;14.80;59.20
52016;DHT22;38032;53.326;6.472;2023-04-06T14:23:24;14.80;59.10
52016;DHT22;38032;53.326;6.472;2023-04-06T14:26:00;14.80;59.40
52016;DHT22;38032;53.326;6.472;2023-04-06T14:28:28;14.80;59.40
52016;DHT22;38032;53.326;6.472;2023-04-06T14:30:54;14.80;59.80
52016;DHT22;38032;53.326;6.472;2023-04-06T14:33:19;14.70;60.20
52016;DHT22;38032;53.326;6.472;2023-04-06T14:35:45;14.60;60.60
52016;DHT22;38032;53.326;6.472;2023-04-06T14:38:11;14.50;61.20
52016;DHT22;38032;53.326;6.472;2023-04-06T14:40:37;14.50;61.70
52016;DHT22;38032;53.326;6.472;2023-04-06T14:43:03;14.40;61.70
52016;DHT22;38032;53.326;6.472;2023-04-06T14:45:32;14.30;62.50
52016;DHT22;38032;53.326;6.472;2023-04-06T14:47:58;14.20;62.90
52016;DHT22;38032;53.326;6.472;2023-04-06T14:50:24;14.00;63.10
52016;DHT22;38032;53.326;6.472;2023-04-06T14:52:50;13.90;63.20
52016;DHT22;38032;53.326;6.472;2023-04-06T14:55:16;13.80;63.70
52016;DHT22;38032;53.326;6.472;2023-04-06T14:57:42;13.80;64.40
52016;DHT22;38032;53.326;6.472;2023-04-06T15:00:08;13.70;64.70
52016;DHT22;38032;53.326;6.472;2023-04-06T15:02:35;13.60;65.20
52016;DHT22;38032;53.326;6.472;2023-04-06T15:05:01;13.50;65.80
52016;DHT22;38032;53.326;6.472;2023-04-06T15:07:27;13.50;66.00
52016;DHT22;38032;53.326;6.472;2023-04-06T15:09:53;13.40;66.30
52016;DHT22;38032;53.326;6.472;2023-04-06T15:12:18;13.30;66.80
52016;DHT22;38032;53.326;6.472;2023-04-06T15:14:44;13.30;67.50
52016;DHT22;38032;53.326;6.472;2023-04-06T15:17:10;13.20;67.50
52016;DHT22;38032;53.326;6.472;2023-04-06T15:19:36;13.10;68.60
52016;DHT22;38032;53.326;6.472;2023-04-06T15:22:02;12.90;68.60
52016;DHT22;38032;53.326;6.472;2023-04-06T15:24:28;12.90;69.80
52016;DHT22;38032;53.326;6.472;2023-04-06T15:26:54;12.80;70.80
52016;DHT22;38032;53.326;6.472;2023-04-06T15:29:20;12.70;71.70
52016;DHT22;38032;53.326;6.472;2023-04-06T15:31:46;12.60;72.40
52016;DHT22;38032;53.326;6.472;2023-04-06T15:34:12;12.50;72.00
52016;DHT22;38032;53.326;6.472;2023-04-06T15:36:38;12.40;73.40